createdAt,value
2019-05-15T00:01:02.762Z,23.61
2019-05-15T00:03:39.120Z,23.62
2019-05-15T00:06:13.099Z,23.82
2019-05-15T00:08:48.727Z,24.14
2019-05-15T00:11:23.936Z,23.44
2019-05-15T00:13:58.936Z,23.39
2019-05-15T00:16:33.614Z,23.47
2019-05-15T00:19:08.685Z,23.55
2019-05-15T00:21:43.080Z,23.63
2019-05-15T00:24:17.855Z,23.61
2019-05-15T00:26:52.284Z,23.46
2019-05-15T00:29:28.739Z,23.81
2019-05-15T00:32:02.125Z,23.97
2019-05-15T00:34:37.880Z,23.35
2019-05-15T00:37:12.291Z,23.39
2019-05-15T00:39:48.443Z,23.52
2019-05-15T00:42:22.481Z,23.54
2019-05-15T00:44:58.448Z,23.55
2019-05-15T00:47:32.520Z,23.56
2019-05-15T00:50:08.921Z,23.57
2019-05-15T00:52:43.545Z,23.98
2019-05-15T00:55:19.140Z,23.89
2019-05-15T00:57:53.384Z,24.01
2019-05-15T01:00:44.979Z,24.02
2019-05-15T01:03:19.016Z,24.22
2019-05-15T01:05:53.084Z,24.17
2019-05-15T01:08:28.439Z,24.16
2019-05-15T01:11:02.410Z,24.19
2019-05-15T01:13:38.733Z,24.22
2019-05-15T01:16:12.392Z,24.20
2019-05-15T01:18:46.242Z,24.22
2019-05-15T01:21:20.614Z,24.26
2019-05-15T01:23:54.857Z,24.25
2019-05-15T01:26:29.139Z,24.29
2019-05-15T01:29:03.339Z,24.29
2019-05-15T01:31:38.015Z,24.32
2019-05-15T01:34:12.153Z,24.33
2019-05-15T01:36:48.698Z,24.35
2019-05-15T01:39:22.338Z,24.33
2019-05-15T01:41:58.422Z,24.35
2019-05-15T01:44:33.302Z,24.34
2019-05-15T01:47:08.464Z,24.35
2019-05-15T01:49:42.529Z,24.34
2019-05-15T01:52:18.772Z,24.37
2019-05-15T01:54:53.636Z,24.41
2019-05-15T01:57:28.752Z,24.35
2019-05-15T02:00:03.110Z,24.38
2019-05-15T02:02:39.249Z,24.35
2019-05-15T02:05:13.596Z,24.35
2019-05-15T02:07:47.982Z,24.39
2019-05-15T02:10:22.189Z,24.39
2019-05-15T02:12:58.649Z,24.42
2019-05-15T02:15:33.907Z,24.42
2019-05-15T02:18:08.491Z,24.42
2019-05-15T02:20:43.789Z,24.48
2019-05-15T02:23:18.889Z,24.46
2019-05-15T02:25:53.285Z,24.46
2019-05-15T02:28:28.894Z,24.49
2019-05-15T02:31:04.558Z,24.50
2019-05-15T02:33:39.921Z,24.54
2019-05-15T02:36:15.074Z,24.52
2019-05-15T02:38:49.358Z,24.52
2019-05-15T02:41:23.804Z,24.53
2019-05-15T02:43:59.195Z,24.52
2019-05-15T02:46:33.485Z,24.52
2019-05-15T02:49:08.801Z,24.54
2019-05-15T02:51:43.057Z,24.54
2019-05-15T02:54:19.589Z,24.52
2019-05-15T02:56:53.203Z,24.53
2019-05-15T02:59:29.117Z,24.54
2019-05-15T03:02:03.290Z,24.56
2019-05-15T03:04:40.023Z,24.64
2019-05-15T03:07:13.606Z,24.61
2019-05-15T03:09:49.694Z,24.62
2019-05-15T03:12:23.367Z,24.61
2019-05-15T03:14:59.846Z,24.61
2019-05-15T03:17:33.353Z,24.60
2019-05-15T03:20:10.403Z,24.60
2019-05-15T03:22:43.659Z,24.59
2019-05-15T03:25:19.143Z,24.60
2019-05-15T03:27:53.189Z,24.62
2019-05-15T03:30:32.438Z,24.63
2019-05-15T03:33:15.823Z,24.61
2019-05-15T03:35:42.721Z,24.61
2019-05-15T03:38:19.228Z,24.60
2019-05-15T03:40:52.670Z,24.52
2019-05-15T03:43:29.276Z,24.51
2019-05-15T03:46:08.775Z,24.49
2019-05-15T03:48:42.960Z,24.50
2019-05-15T03:51:19.878Z,24.52
2019-05-15T03:53:52.965Z,24.59
2019-05-15T03:56:29.589Z,24.60
2019-05-15T03:59:03.675Z,24.99
2019-05-15T04:01:43.340Z,25.74
2019-05-15T04:04:14.267Z,25.94
2019-05-15T04:06:49.867Z,26.11
2019-05-15T04:09:23.511Z,26.21
2019-05-15T04:12:00.018Z,26.35
2019-05-15T04:14:33.481Z,26.47
2019-05-15T04:17:09.102Z,26.53
2019-05-15T04:19:43.115Z,26.58
2019-05-15T04:22:19.806Z,26.63
2019-05-15T04:24:54.635Z,26.76
2019-05-15T04:27:29.256Z,26.84
2019-05-15T04:30:03.620Z,26.87
2019-05-15T04:32:39.901Z,26.94
2019-05-15T04:35:14.027Z,26.97
2019-05-15T04:37:49.462Z,27.02
2019-05-15T04:40:24.101Z,27.06
2019-05-15T04:42:59.226Z,27.06
2019-05-15T04:45:35.176Z,27.07
2019-05-15T04:48:10.460Z,27.11
2019-05-15T04:50:45.188Z,27.12
2019-05-15T04:53:19.557Z,27.11
2019-05-15T04:55:54.859Z,27.14
2019-05-15T04:58:29.839Z,27.17
2019-05-15T05:01:04.187Z,27.17
2019-05-15T05:03:39.419Z,27.18
2019-05-15T05:06:14.371Z,27.22
2019-05-15T05:08:49.083Z,27.24
2019-05-15T05:11:24.147Z,27.27
2019-05-15T05:13:59.107Z,27.35
2019-05-15T05:16:33.663Z,27.31
2019-05-15T05:19:08.949Z,27.26
2019-05-15T05:21:43.462Z,27.24
2019-05-15T05:24:18.528Z,27.23
2019-05-15T05:26:52.948Z,27.23
2019-05-15T05:29:28.011Z,27.23
2019-05-15T05:32:02.957Z,27.23
2019-05-15T05:34:39.111Z,27.25
2019-05-15T05:37:13.616Z,27.25
2019-05-15T05:39:48.395Z,27.26
2019-05-15T05:42:23.010Z,27.27
2019-05-15T05:44:58.238Z,27.30
2019-05-15T05:47:33.032Z,27.30
2019-05-15T05:50:08.095Z,27.31
2019-05-15T05:52:42.706Z,27.32
2019-05-15T05:55:17.883Z,27.34
2019-05-15T05:57:52.441Z,27.36
2019-05-15T06:00:30.591Z,27.39
2019-05-15T06:03:04.834Z,27.42
2019-05-15T06:05:39.228Z,27.44
2019-05-15T06:08:13.593Z,27.47
2019-05-15T06:10:49.516Z,27.48
2019-05-15T06:13:23.960Z,27.50
2019-05-15T06:15:59.059Z,27.51
2019-05-15T06:18:33.846Z,27.52
2019-05-15T06:21:09.151Z,27.53
2019-05-15T06:23:46.202Z,27.62
2019-05-15T06:26:20.047Z,27.61
2019-05-15T06:28:54.329Z,28.11
2019-05-15T06:31:28.932Z,28.09
2019-05-15T06:34:03.191Z,27.94
2019-05-15T06:36:39.268Z,27.88
2019-05-15T06:39:13.575Z,27.83
2019-05-15T06:41:48.949Z,27.80
2019-05-15T06:44:23.328Z,27.80
2019-05-15T06:46:58.721Z,27.79
2019-05-15T06:49:33.234Z,27.78
2019-05-15T06:52:08.851Z,27.82
2019-05-15T06:54:44.638Z,27.82
2019-05-15T06:57:18.799Z,27.83
2019-05-15T06:59:52.873Z,27.84
2019-05-15T07:02:28.557Z,27.84
2019-05-15T07:05:03.088Z,27.85
2019-05-15T07:07:38.713Z,27.85
2019-05-15T07:10:13.785Z,27.88
2019-05-15T07:12:51.005Z,27.99
2019-05-15T07:15:24.646Z,28.14
2019-05-15T07:17:59.069Z,28.12
2019-05-15T07:20:33.974Z,28.14
2019-05-15T07:23:08.813Z,28.16
2019-05-15T07:25:43.268Z,28.18
2019-05-15T07:28:18.155Z,28.22
2019-05-15T07:30:52.939Z,28.19
2019-05-15T07:33:36.697Z,28.18
2019-05-15T07:36:03.852Z,28.22
2019-05-15T07:38:39.150Z,28.24
2019-05-15T07:41:13.890Z,28.25
2019-05-15T07:44:13.603Z,28.26
2019-05-15T07:46:49.590Z,28.29
2019-05-15T07:49:23.492Z,28.30
2019-05-15T07:51:59.165Z,28.34
2019-05-15T07:54:33.641Z,28.39
2019-05-15T07:57:09.255Z,28.42
2019-05-15T07:59:43.712Z,28.43
2019-05-15T08:02:19.071Z,28.48
2019-05-15T08:04:53.504Z,28.51
2019-05-15T08:07:28.150Z,28.55
2019-05-15T08:10:02.440Z,28.55
2019-05-15T08:12:39.163Z,28.57
2019-05-15T08:15:18.274Z,28.59
2019-05-15T08:18:05.602Z,28.61
2019-05-15T08:20:31.229Z,28.68
2019-05-15T08:23:05.450Z,28.72
2019-05-15T08:25:39.698Z,28.71
2019-05-15T08:28:14.027Z,28.72
2019-05-15T08:30:49.444Z,28.76
2019-05-15T08:33:24.157Z,28.76
2019-05-15T08:35:58.814Z,28.80
2019-05-15T08:38:33.631Z,28.79
2019-05-15T08:41:11.405Z,28.81
2019-05-15T08:43:44.163Z,28.84
2019-05-15T08:46:18.832Z,28.84
2019-05-15T08:48:53.358Z,28.88
2019-05-15T08:51:28.439Z,28.94
2019-05-15T08:54:02.832Z,28.94
2019-05-15T08:56:39.301Z,28.99
2019-05-15T08:59:13.025Z,29.00
2019-05-15T09:01:49.000Z,29.01
2019-05-15T09:04:30.829Z,29.05
2019-05-15T09:07:01.326Z,29.14
2019-05-15T09:09:35.063Z,29.28
2019-05-15T09:12:30.701Z,29.36
2019-05-15T09:15:10.087Z,29.33
2019-05-15T09:17:45.288Z,29.27
2019-05-15T09:20:19.384Z,29.26
2019-05-15T09:22:51.879Z,29.30
2019-05-15T09:25:24.529Z,29.30
2019-05-15T09:27:57.926Z,29.30
2019-05-15T09:30:31.576Z,29.32
2019-05-15T09:33:04.141Z,29.33
2019-05-15T09:35:36.639Z,29.39
2019-05-15T09:38:09.273Z,29.45
2019-05-15T09:40:46.152Z,29.44
2019-05-15T09:43:18.074Z,29.43
2019-05-15T09:45:51.671Z,29.42
2019-05-15T09:48:28.616Z,29.46
2019-05-15T09:51:03.349Z,29.47
2019-05-15T09:53:39.361Z,29.52
2019-05-15T09:56:14.018Z,29.51
2019-05-15T09:58:48.873Z,29.50
2019-05-15T10:01:21.940Z,29.52
2019-05-15T10:03:54.595Z,29.06
2019-05-15T10:06:28.656Z,27.99
2019-05-15T10:09:02.246Z,27.39
2019-05-15T10:11:35.870Z,27.07
2019-05-15T10:14:10.096Z,26.90
2019-05-15T10:16:43.903Z,26.70
2019-05-15T10:19:18.537Z,26.57
2019-05-15T10:21:52.846Z,26.46
2019-05-15T10:24:28.082Z,26.42
2019-05-15T10:27:00.865Z,26.31
2019-05-15T10:29:34.149Z,26.30
2019-05-15T10:32:08.656Z,26.27
2019-05-15T10:34:42.661Z,26.21
2019-05-15T10:37:18.370Z,26.11
2019-05-15T10:39:52.736Z,26.07
2019-05-15T10:42:25.030Z,26.05
2019-05-15T10:44:58.878Z,26.01
2019-05-15T10:47:31.984Z,25.98
2019-05-15T10:50:07.852Z,25.86
2019-05-15T10:52:40.146Z,25.83
2019-05-15T10:55:13.248Z,25.72
2019-05-15T10:57:46.708Z,25.74
2019-05-15T11:00:21.388Z,25.72
2019-05-15T11:02:54.421Z,25.72
2019-05-15T11:05:40.529Z,25.64
2019-05-15T11:08:02.662Z,25.62
2019-05-15T11:10:38.553Z,25.63
2019-05-15T11:13:10.469Z,25.59
2019-05-15T11:15:43.372Z,25.47
2019-05-15T11:18:16.301Z,25.38
2019-05-15T11:20:49.544Z,25.51
2019-05-15T11:23:22.391Z,25.44
2019-05-15T11:25:57.987Z,25.38
2019-05-15T11:28:32.309Z,25.44
2019-05-15T11:31:04.354Z,25.27
2019-05-15T11:33:38.451Z,25.30
2019-05-15T11:36:11.370Z,25.32
2019-05-15T11:38:44.376Z,25.22
2019-05-15T11:41:19.437Z,25.24
2019-05-15T11:43:52.956Z,25.25
2019-05-15T11:48:12.348Z,25.27
2019-05-15T11:53:42.166Z,25.22
2019-05-15T11:56:32.841Z,25.21
2019-05-15T11:59:05.764Z,25.17
2019-05-15T12:01:38.708Z,25.16
2019-05-15T12:04:26.661Z,25.26
2019-05-15T12:07:04.081Z,25.21
2019-05-15T12:09:38.680Z,25.02
2019-05-15T12:12:11.727Z,25.17
2019-05-15T12:14:44.400Z,25.22
2019-05-15T12:17:18.972Z,25.21
2019-05-15T12:20:10.785Z,25.16
2019-05-15T12:22:43.669Z,25.03
2019-05-15T12:25:16.367Z,24.93
2019-05-15T12:27:49.244Z,25.04
2019-05-15T12:30:22.257Z,25.03
2019-05-15T12:33:13.178Z,25.04
2019-05-15T12:35:45.781Z,25.05
2019-05-15T12:38:18.751Z,25.04
2019-05-15T13:01:29.558Z,25.04
2019-05-15T13:04:01.881Z,24.93
2019-05-15T13:06:47.304Z,24.83
2019-05-15T13:09:09.634Z,24.96
2019-05-15T13:11:42.820Z,24.95
2019-05-15T13:14:15.767Z,24.85
2019-05-15T13:16:48.665Z,24.88
2019-05-15T13:19:21.206Z,24.93
2019-05-15T13:21:53.815Z,24.91
2019-05-15T13:24:28.415Z,25.01
2019-05-15T13:27:01.801Z,24.90
2019-05-15T13:29:37.304Z,24.89
2019-05-15T13:32:09.863Z,24.80
2019-05-15T13:34:42.633Z,24.85
2019-05-15T13:37:26.323Z,24.84
2019-05-15T13:39:49.591Z,25.96
2019-05-15T13:42:23.382Z,26.92
2019-05-15T13:44:58.694Z,27.32
2019-05-15T13:47:30.862Z,27.54
2019-05-15T13:50:03.658Z,27.64
2019-05-15T13:52:39.190Z,27.77
2019-05-15T13:55:11.418Z,27.92
2019-05-15T13:57:44.130Z,28.09
2019-05-15T14:00:17.167Z,28.00
2019-05-15T14:02:49.545Z,27.89
2019-05-15T14:05:22.236Z,27.81
2019-05-15T14:07:55.084Z,27.76
2019-05-15T14:10:28.567Z,27.75
2019-05-15T14:13:01.265Z,27.76
2019-05-15T14:15:34.017Z,27.78
2019-05-15T14:18:08.525Z,27.81
2019-05-15T14:20:41.360Z,27.82
2019-05-15T14:23:14.011Z,27.85
2019-05-15T14:25:48.249Z,27.88
2019-05-15T14:28:21.344Z,27.91
2019-05-15T14:30:54.109Z,27.93
2019-05-15T14:33:28.987Z,27.96
2019-05-15T14:36:01.188Z,27.99
2019-05-15T14:38:37.861Z,28.01
2019-05-15T14:41:11.106Z,28.05
2019-05-15T14:43:43.726Z,28.76
2019-05-15T14:46:18.422Z,28.84
2019-05-15T14:48:50.698Z,28.81
2019-05-15T14:51:23.216Z,28.88
2019-05-15T14:53:58.223Z,29.03
2019-05-15T14:56:29.995Z,29.06
2019-05-15T14:59:02.755Z,28.93
2019-05-15T15:01:38.240Z,28.81
2019-05-15T15:04:10.292Z,28.74
2019-05-15T15:06:42.960Z,28.72
2019-05-15T15:09:15.692Z,28.71
2019-05-15T15:11:48.480Z,28.72
2019-05-15T15:14:21.347Z,28.72
2019-05-15T15:16:54.067Z,28.72
2019-05-15T15:19:29.121Z,28.72
2019-05-15T15:22:01.309Z,28.72
2019-05-15T15:24:33.812Z,29.21
2019-05-15T15:27:08.296Z,29.31
2019-05-15T15:29:41.284Z,29.30
2019-05-15T15:32:13.805Z,29.32
2019-05-15T15:34:47.945Z,29.34
2019-05-15T15:37:20.607Z,29.33
2019-05-15T15:39:53.217Z,29.35
2019-05-15T15:42:28.122Z,29.40
2019-05-15T15:44:59.835Z,29.41
2019-05-15T15:47:32.480Z,29.46
2019-05-15T15:50:05.099Z,29.46
2019-05-15T15:52:38.422Z,29.53
2019-05-15T15:55:11.612Z,29.57
2019-05-15T15:57:48.501Z,29.44
2019-05-15T16:00:20.357Z,28.48
2019-05-15T16:02:53.045Z,27.45
2019-05-15T16:05:29.017Z,26.25
2019-05-15T16:08:03.586Z,25.59
2019-05-15T16:10:37.931Z,25.19
2019-05-15T16:13:12.480Z,24.72
2019-05-15T16:15:45.004Z,24.47
2019-05-15T16:18:18.337Z,24.35
2019-05-15T16:20:53.686Z,24.19
2019-05-15T16:23:29.512Z,24.04
2019-05-15T16:26:02.166Z,24.28
2019-05-15T16:28:34.960Z,24.34
2019-05-15T16:31:07.945Z,24.06
2019-05-15T16:33:40.614Z,23.84
2019-05-15T16:36:18.228Z,23.88
2019-05-15T16:39:02.756Z,23.85
2019-05-15T16:41:24.577Z,23.64
2019-05-15T16:43:57.800Z,23.54
2019-05-15T16:46:30.403Z,23.53
2019-05-15T16:49:03.496Z,23.68
2019-05-15T16:51:38.287Z,23.67
2019-05-15T16:54:11.286Z,23.81
2019-05-15T16:56:43.735Z,23.73
2019-05-15T16:59:18.189Z,23.78
2019-05-15T17:01:50.410Z,23.90
2019-05-15T17:04:23.289Z,23.90
2019-05-15T17:06:55.734Z,23.87
2019-05-15T17:09:28.287Z,23.71
2019-05-15T17:12:00.757Z,23.64
2019-05-15T17:14:33.520Z,23.64
2019-05-15T17:17:07.995Z,23.64
2019-05-15T17:19:40.588Z,23.45
2019-05-15T17:22:14.596Z,23.45
2019-05-15T17:24:48.841Z,23.40
2019-05-15T17:27:21.358Z,23.43
2019-05-15T17:29:54.156Z,23.43
2019-05-15T17:32:28.908Z,23.46
2019-05-15T17:35:00.924Z,23.41
2019-05-15T17:37:33.984Z,23.45
2019-05-15T17:40:06.696Z,23.36
2019-05-15T17:42:39.291Z,23.33
2019-05-15T17:45:13.729Z,23.35
2019-05-15T17:47:48.600Z,23.37
2019-05-15T17:50:21.640Z,23.31
2019-05-15T17:52:54.006Z,23.36
2019-05-15T17:55:27.881Z,23.36
2019-05-15T17:58:01.071Z,23.41
2019-05-15T18:00:34.728Z,23.48
2019-05-15T18:03:08.611Z,23.49
2019-05-15T18:05:41.673Z,23.47
2019-05-15T18:08:14.909Z,23.50
2019-05-15T18:10:47.848Z,23.63
2019-05-15T18:13:20.806Z,23.71
2019-05-15T18:15:53.415Z,23.80
2019-05-15T18:18:44.731Z,24.38
2019-05-15T18:21:18.361Z,23.94
2019-05-15T18:23:51.342Z,23.50
2019-05-15T18:26:25.740Z,23.38
2019-05-15T18:28:58.941Z,23.43
2019-05-15T18:31:31.872Z,23.47
2019-05-15T18:34:05.121Z,23.86
2019-05-15T18:36:39.172Z,24.47
2019-05-15T18:39:12.156Z,24.63
2019-05-15T18:41:44.697Z,24.58
2019-05-15T18:44:18.913Z,24.57
2019-05-15T18:46:51.385Z,24.52
2019-05-15T18:49:23.924Z,24.57
2019-05-15T18:51:58.202Z,24.51
2019-05-15T18:54:30.569Z,24.48
2019-05-15T18:57:03.219Z,24.51
2019-05-15T18:59:35.691Z,24.57
2019-05-15T19:02:09.734Z,24.51
2019-05-15T19:04:43.099Z,24.57
2019-05-15T19:07:18.002Z,24.53
2019-05-15T19:09:52.216Z,24.54
2019-05-15T19:12:28.214Z,24.58
2019-05-15T19:15:01.780Z,24.56
2019-05-15T19:17:38.809Z,24.54
2019-05-15T19:20:11.218Z,24.56
2019-05-15T19:22:43.913Z,24.57
2019-05-15T19:25:17.980Z,24.61
2019-05-15T19:27:50.590Z,24.60
2019-05-15T19:30:23.216Z,24.58
2019-05-15T19:32:55.657Z,24.61
2019-05-15T19:35:28.300Z,24.60
2019-05-15T19:38:00.792Z,24.63
2019-05-15T19:40:33.435Z,24.63
2019-05-15T19:43:05.931Z,24.55
2019-05-15T19:45:38.692Z,24.55
2019-05-15T19:48:11.474Z,24.61
2019-05-15T19:50:43.954Z,24.60
2019-05-15T19:53:18.854Z,24.58
2019-05-15T19:55:51.104Z,24.57
2019-05-15T19:58:23.890Z,24.55
2019-05-15T20:00:56.336Z,24.55
2019-05-15T20:03:29.356Z,24.52
2019-05-15T20:06:02.064Z,24.52
2019-05-15T20:08:34.662Z,24.52
2019-05-15T20:11:10.252Z,24.54
2019-05-15T20:13:41.624Z,24.53
2019-05-15T20:16:14.259Z,24.53
2019-05-15T20:18:47.917Z,24.52
2019-05-15T20:21:20.604Z,24.52
2019-05-15T20:23:54.074Z,24.47
2019-05-15T20:26:28.488Z,24.52
2019-05-15T20:29:00.545Z,24.51
2019-05-15T20:31:33.943Z,24.51
2019-05-15T20:34:09.084Z,24.47
2019-05-15T20:36:41.441Z,24.44
2019-05-15T20:39:14.121Z,24.39
2019-05-15T20:41:48.611Z,24.45
2019-05-15T20:44:20.712Z,24.44
2019-05-15T20:46:53.213Z,24.44
2019-05-15T20:49:25.617Z,24.48
2019-05-15T20:51:58.279Z,24.51
2019-05-15T20:54:30.788Z,24.48
2019-05-15T20:57:03.296Z,24.45
2019-05-15T20:59:35.630Z,24.46
2019-05-15T21:02:08.266Z,24.48
2019-05-15T21:04:40.742Z,24.44
2019-05-15T21:07:13.217Z,24.41
2019-05-15T21:09:47.971Z,24.41
2019-05-15T21:12:19.538Z,24.39
2019-05-15T21:14:51.996Z,24.43
2019-05-15T21:17:24.500Z,24.42
2019-05-15T21:19:58.373Z,24.40
2019-05-15T21:22:32.288Z,24.41
2019-05-15T21:25:04.790Z,24.41
2019-05-15T21:27:42.350Z,24.41
2019-05-15T21:30:11.894Z,24.39
2019-05-15T21:32:44.420Z,24.40
2019-05-15T21:35:18.016Z,24.40
2019-05-15T21:37:51.812Z,24.43
2019-05-15T21:40:24.291Z,24.39
2019-05-15T21:42:58.189Z,24.40
2019-05-15T21:45:31.213Z,24.35
2019-05-15T21:48:03.847Z,24.29
2019-05-15T21:50:38.417Z,24.33
2019-05-15T21:53:10.861Z,24.33
2019-05-15T21:55:43.267Z,24.35
2019-05-15T21:58:17.972Z,24.31
2019-05-15T22:00:51.725Z,24.35
2019-05-15T22:03:27.941Z,24.30
2019-05-15T22:06:00.099Z,24.24
2019-05-15T22:08:32.750Z,24.30
2019-05-15T22:11:05.412Z,24.38
2019-05-15T22:13:40.584Z,24.30
2019-05-15T22:16:13.513Z,24.44
2019-05-15T22:18:47.838Z,24.16
2019-05-15T22:21:20.520Z,24.06
2019-05-15T22:23:53.109Z,24.09
2019-05-15T22:26:25.575Z,24.16
2019-05-15T22:28:58.435Z,24.24
2019-05-15T22:31:31.435Z,24.31
2019-05-15T22:34:03.887Z,24.32
2019-05-15T22:36:36.375Z,24.36
2019-05-15T22:39:09.511Z,24.38
2019-05-15T22:41:42.142Z,24.38
2019-05-15T22:44:14.737Z,24.38
2019-05-15T22:46:48.731Z,24.41
2019-05-15T22:49:22.238Z,24.41
2019-05-15T22:51:54.709Z,24.43
2019-05-15T22:54:28.087Z,24.45
2019-05-15T22:57:01.389Z,24.40
2019-05-15T22:59:33.758Z,24.42
2019-05-15T23:02:09.061Z,24.44
2019-05-15T23:04:40.638Z,24.45
2019-05-15T23:07:13.397Z,24.44
2019-05-15T23:09:46.094Z,24.46
2019-05-15T23:12:18.660Z,24.40
2019-05-15T23:14:51.211Z,24.42
2019-05-15T23:17:23.997Z,24.45
2019-05-15T23:19:58.239Z,24.48
2019-05-15T23:22:32.002Z,24.48
2019-05-15T23:25:04.906Z,24.46
2019-05-15T23:27:38.187Z,24.44
2019-05-15T23:30:11.877Z,24.43
2019-05-15T23:32:44.242Z,24.42
2019-05-15T23:35:17.917Z,24.43
2019-05-15T23:37:50.529Z,24.41
2019-05-15T23:40:23.208Z,24.41
2019-05-15T23:42:55.639Z,24.40
2019-05-15T23:45:28.880Z,24.40
2019-05-15T23:48:02.652Z,24.39
2019-05-15T23:50:38.098Z,24.40
2019-05-15T23:53:09.682Z,24.39
2019-05-15T23:55:42.090Z,24.42
2019-05-15T23:58:14.497Z,24.39
